Time,TemperatureF,DewpointF,PressureIn,WindDirection,WindDirectionDegrees,WindSpeedMPH,WindSpeedGustMPH,Humidity,HourlyPrecipIn,Conditions,Clouds,dailyrainin,SoftwareType,DateUTC
2013-02-02 00:00:00,10.0,4.8,30.26,SSW,211,7.0,17.0,79,0.00,,---,0.00,VWS V14.01,2013-02-02 05:00:00,
2013-02-02 00:01:00,10.0,4.8,30.26,SSW,203,10.0,17.0,79,0.00,,---,0.00,VWS V14.01,2013-02-02 05:01:00,
2013-02-02 00:06:00,9.9,4.7,30.26,SW,225,11.0,12.0,79,0.00,,---,0.00,VWS V14.01,2013-02-02 05:06:00,
2013-02-02 00:11:00,9.9,5.0,30.25,SW,225,9.0,13.0,80,0.00,,---,0.00,VWS V14.01,2013-02-02 05:11:00,
2013-02-02 00:17:00,10.0,5.1,30.25,West,260,8.0,14.0,80,0.00,,---,0.00,VWS V14.01,2013-02-02 05:17:00,
2013-02-02 00:22:00,10.0,5.1,30.25,WSW,243,12.0,14.0,80,0.00,,---,0.00,VWS V14.01,2013-02-02 05:22:00,
2013-02-02 00:27:00,10.1,5.2,30.25,WSW,238,10.0,14.0,80,0.00,,---,0.00,VWS V14.01,2013-02-02 05:27:00,
2013-02-02 00:32:00,10.2,5.3,30.25,SW,224,12.0,14.0,80,0.00,,---,0.00,VWS V14.01,2013-02-02 05:32:00,
2013-02-02 00:37:00,10.2,5.3,30.25,WSW,238,9.0,14.0,80,0.00,,---,0.00,VWS V14.01,2013-02-02 05:37:00,
2013-02-02 00:42:00,10.2,5.3,30.25,SW,233,5.0,14.0,80,0.00,,---,0.00,VWS V14.01,2013-02-02 05:42:00,
2013-02-02 00:47:00,10.2,5.3,30.25,WSW,255,5.0,14.0,80,0.00,,---,0.00,VWS V14.01,2013-02-02 05:47:00,
2013-02-02 00:52:00,10.3,5.4,30.25,SW,233,7.0,14.0,80,0.00,,---,0.00,VWS V14.01,2013-02-02 05:52:00,
2013-02-02 00:58:00,10.4,5.5,30.25,SW,222,9.0,14.0,80,0.00,,---,0.00,VWS V14.01,2013-02-02 05:58:00,
2013-02-02 01:03:00,10.5,5.6,30.25,SW,228,10.0,12.0,80,0.00,,---,0.00,VWS V14.01,2013-02-02 06:03:00,
2013-02-02 01:08:00,10.6,5.7,30.25,SW,224,9.0,14.0,80,0.00,,---,0.00,VWS V14.01,2013-02-02 06:08:00,
2013-02-02 01:13:00,10.7,5.8,30.25,SW,235,8.0,14.0,80,0.00,,---,0.00,VWS V14.01,2013-02-02 06:13:00,
2013-02-02 01:18:00,10.8,5.9,30.24,SW,225,8.0,14.0,80,0.00,,---,0.00,VWS V14.01,2013-02-02 06:18:00,
2013-02-02 01:23:00,10.9,5.9,30.24,SW,226,10.0,14.0,80,0.00,,---,0.00,VWS V14.01,2013-02-02 06:23:00,
2013-02-02 01:28:00,11.0,6.1,30.24,SW,235,10.0,14.0,80,0.00,,---,0.00,VWS V14.01,2013-02-02 06:28:00,
2013-02-02 01:33:00,11.1,6.4,30.23,SSW,207,14.0,15.0,81,0.00,,---,0.00,VWS V14.01,2013-02-02 06:33:00,
2013-02-02 01:38:00,11.1,6.2,30.23,SSW,211,10.0,15.0,80,0.00,,---,0.00,VWS V14.01,2013-02-02 06:38:00,
2013-02-02 01:44:00,11.2,6.5,30.23,SW,217,9.0,16.0,81,0.00,,---,0.00,VWS V14.01,2013-02-02 06:44:00,
2013-02-02 01:49:00,11.2,6.5,30.23,SSW,204,11.0,16.0,81,0.00,,---,0.00,VWS V14.01,2013-02-02 06:49:00,
2013-02-02 01:54:00,11.2,6.5,30.23,SW,222,7.0,16.0,81,0.00,,---,0.00,VWS V14.01,2013-02-02 06:54:00,
2013-02-02 01:59:00,11.2,6.5,30.22,SSW,210,7.0,16.0,81,0.00,,---,0.00,VWS V14.01,2013-02-02 06:59:00,
2013-02-02 02:04:00,11.3,6.6,30.22,SSW,212,7.0,16.0,81,0.00,,---,0.00,VWS V14.01,2013-02-02 07:04:00,
2013-02-02 02:09:00,11.4,6.7,30.22,South,190,8.0,16.0,81,0.00,,---,0.00,VWS V14.01,2013-02-02 07:09:00,
2013-02-02 02:14:00,11.5,6.8,30.22,SSW,212,11.0,16.0,81,0.00,,---,0.00,VWS V14.01,2013-02-02 07:14:00,
2013-02-02 02:19:00,11.5,6.8,30.22,SW,226,11.0,16.0,81,0.00,,---,0.00,VWS V14.01,2013-02-02 07:19:00,
2013-02-02 02:24:00,11.5,6.8,30.22,SW,217,10.0,16.0,81,0.00,,---,0.00,VWS V14.01,2013-02-02 07:24:00,
2013-02-02 02:29:00,11.4,6.7,30.22,SW,226,8.0,16.0,81,0.00,,---,0.00,VWS V14.01,2013-02-02 07:29:00,
2013-02-02 02:35:00,11.4,7.0,30.22,SSW,207,7.0,16.0,82,0.00,,---,0.00,VWS V14.01,2013-02-02 07:35:00,
2013-02-02 02:40:00,11.3,6.9,30.22,SW,217,10.0,16.0,82,0.00,,---,0.00,VWS V14.01,2013-02-02 07:40:00,
2013-02-02 02:45:00,11.4,7.0,30.22,SSW,196,9.0,16.0,82,0.00,,---,0.00,VWS V14.01,2013-02-02 07:45:00,
2013-02-02 02:50:00,11.4,7.0,30.22,SW,218,11.0,16.0,82,0.00,,---,0.00,VWS V14.01,2013-02-02 07:50:00,
2013-02-02 02:55:00,11.4,7.0,30.22,SSW,211,6.0,16.0,82,0.00,,---,0.00,VWS V14.01,2013-02-02 07:55:00,
2013-02-02 03:00:00,11.5,7.1,30.22,SSW,200,8.0,16.0,82,0.00,,---,0.00,VWS V14.01,2013-02-02 08:00:00,
2013-02-02 03:05:00,11.6,7.2,30.22,SW,218,8.0,13.0,82,0.00,,---,0.00,VWS V14.01,2013-02-02 08:05:00,
2013-02-02 03:10:00,11.6,7.4,30.21,SSW,204,12.0,13.0,83,0.00,,---,0.00,VWS V14.01,2013-02-02 08:10:00,
2013-02-02 03:15:00,11.7,7.3,30.21,SW,233,6.0,15.0,82,0.00,,---,0.00,VWS V14.01,2013-02-02 08:15:00,
2013-02-02 03:21:00,11.8,7.4,30.20,SW,225,8.0,15.0,82,0.00,,---,0.00,VWS V14.01,2013-02-02 08:21:00,
2013-02-02 03:26:00,11.9,7.5,30.20,SW,214,7.0,15.0,82,0.00,,---,0.00,VWS V14.01,2013-02-02 08:26:00,
2013-02-02 03:31:00,11.9,7.5,30.20,South,177,8.0,16.0,82,0.00,,---,0.00,VWS V14.01,2013-02-02 08:31:00,
2013-02-02 03:36:00,12.0,7.6,30.20,SW,231,9.0,16.0,82,0.00,,---,0.00,VWS V14.01,2013-02-02 08:36:00,
2013-02-02 03:41:00,12.1,7.7,30.20,SW,214,7.0,16.0,82,0.00,,---,0.00,VWS V14.01,2013-02-02 08:41:00,
2013-02-02 03:46:00,12.1,7.4,30.20,SW,231,8.0,16.0,81,0.00,,---,0.00,VWS V14.01,2013-02-02 08:46:00,
2013-02-02 03:51:00,12.2,7.8,30.19,WSW,242,7.0,16.0,82,0.00,,---,0.00,VWS V14.01,2013-02-02 08:51:00,
2013-02-02 03:56:00,12.2,7.8,30.19,SW,222,11.0,16.0,82,0.00,,---,0.00,VWS V14.01,2013-02-02 08:56:00,
2013-02-02 04:01:00,12.2,7.8,30.19,SW,226,12.0,13.0,82,0.00,,---,0.00,VWS V14.01,2013-02-02 09:01:00,
2013-02-02 04:07:00,12.3,8.1,30.19,WSW,240,9.0,18.0,83,0.00,,---,0.00,VWS V14.01,2013-02-02 09:07:00,
2013-02-02 04:12:00,12.4,8.2,30.18,SW,221,9.0,18.0,83,0.00,,---,0.00,VWS V14.01,2013-02-02 09:12:00,
2013-02-02 04:17:00,12.4,8.2,30.18,SW,226,7.0,18.0,83,0.00,,---,0.00,VWS V14.01,2013-02-02 09:17:00,
2013-02-02 04:22:00,12.6,8.4,30.17,SW,232,8.0,18.0,83,0.00,,---,0.00,VWS V14.01,2013-02-02 09:22:00,
2013-02-02 04:27:00,12.6,8.4,30.17,WSW,248,6.0,18.0,83,0.00,,---,0.00,VWS V14.01,2013-02-02 09:27:00,
2013-02-02 04:32:00,12.8,8.9,30.17,SW,218,5.0,18.0,84,0.00,,---,0.00,VWS V14.01,2013-02-02 09:32:00,
2013-02-02 04:37:00,12.9,9.0,30.17,SSW,211,7.0,18.0,84,0.00,,---,0.00,VWS V14.01,2013-02-02 09:37:00,
2013-02-02 04:42:00,13.0,9.4,30.17,SW,214,6.0,18.0,85,0.00,,---,0.00,VWS V14.01,2013-02-02 09:42:00,
2013-02-02 04:47:00,13.0,9.4,30.17,SSW,197,9.0,18.0,85,0.00,,---,0.00,VWS V14.01,2013-02-02 09:47:00,
2013-02-02 04:53:00,13.1,9.4,30.16,SW,217,10.0,18.0,85,0.00,,---,0.00,VWS V14.01,2013-02-02 09:53:00,
2013-02-02 04:58:00,13.2,9.8,30.16,SSW,208,10.0,18.0,86,0.00,,---,0.00,VWS V14.01,2013-02-02 09:58:00,
2013-02-02 05:03:00,13.2,9.8,30.15,SW,226,6.0,10.0,86,0.00,,---,0.00,VWS V14.01,2013-02-02 10:03:00,
2013-02-02 05:08:00,13.2,9.8,30.15,SSW,203,6.0,14.0,86,0.00,,---,0.00,VWS V14.01,2013-02-02 10:08:00,
2013-02-02 05:13:00,13.3,9.9,30.15,SW,222,9.0,14.0,86,0.00,,---,0.00,VWS V14.01,2013-02-02 10:13:00,
2013-02-02 05:18:00,13.3,9.9,30.14,SW,224,7.0,14.0,86,0.00,,---,0.00,VWS V14.01,2013-02-02 10:18:00,
2013-02-02 05:23:00,13.4,10.0,30.14,SSW,203,8.0,14.0,86,0.00,,---,0.00,VWS V14.01,2013-02-02 10:23:00,
2013-02-02 05:28:00,13.4,10.0,30.14,SW,224,8.0,14.0,86,0.00,,---,0.00,VWS V14.01,2013-02-02 10:28:00,
2013-02-02 05:33:00,13.5,10.1,30.14,SW,218,7.0,14.0,86,0.00,,---,0.00,VWS V14.01,2013-02-02 10:33:00,
2013-02-02 05:38:00,13.6,10.2,30.13,SW,225,5.0,14.0,86,0.00,,---,0.00,VWS V14.01,2013-02-02 10:38:00,
2013-02-02 05:43:00,13.7,10.3,30.13,SW,221,10.0,14.0,86,0.00,,---,0.00,VWS V14.01,2013-02-02 10:43:00,
2013-02-02 05:49:00,13.7,10.6,30.13,SSW,203,7.0,14.0,87,0.00,,---,0.00,VWS V14.01,2013-02-02 10:49:00,
2013-02-02 05:54:00,13.7,10.6,30.12,SW,214,4.0,14.0,87,0.00,,---,0.00,VWS V14.01,2013-02-02 10:54:00,
2013-02-02 05:59:00,13.8,10.6,30.12,SW,221,6.0,14.0,87,0.00,,---,0.00,VWS V14.01,2013-02-02 10:59:00,
2013-02-02 06:04:00,13.9,10.8,30.12,SSW,201,8.0,10.0,87,0.00,,---,0.00,VWS V14.01,2013-02-02 11:04:00,
2013-02-02 06:09:00,14.0,10.6,30.12,SSW,201,5.0,11.0,86,0.00,,---,0.00,VWS V14.01,2013-02-02 11:09:00,
2013-02-02 06:14:00,14.1,10.7,30.12,SSW,197,8.0,11.0,86,0.00,,---,0.00,VWS V14.01,2013-02-02 11:14:00,
2013-02-02 06:19:00,14.1,10.7,30.12,SW,222,7.0,11.0,86,0.00,,---,0.00,VWS V14.01,2013-02-02 11:19:00,
2013-02-02 06:24:00,14.2,10.8,30.12,SW,217,7.0,11.0,86,0.00,,---,0.00,VWS V14.01,2013-02-02 11:24:00,
2013-02-02 06:29:00,14.3,10.9,30.12,SSW,201,7.0,11.0,86,0.00,,---,0.00,VWS V14.01,2013-02-02 11:29:00,
2013-02-02 06:35:00,14.3,10.9,30.11,SSW,193,5.0,11.0,86,0.00,,---,0.00,VWS V14.01,2013-02-02 11:35:00,
2013-02-02 06:40:00,14.4,11.0,30.11,SW,235,4.0,11.0,86,0.00,,---,0.00,VWS V14.01,2013-02-02 11:40:00,
2013-02-02 06:45:00,14.4,11.0,30.11,South,183,5.0,11.0,86,0.00,,---,0.00,VWS V14.01,2013-02-02 11:45:00,
2013-02-02 06:50:00,14.5,11.1,30.11,SSW,200,4.0,11.0,86,0.00,,---,0.00,VWS V14.01,2013-02-02 11:50:00,
2013-02-02 06:55:00,14.5,11.3,30.11,South,186,8.0,11.0,87,0.00,,---,0.00,VWS V14.01,2013-02-02 11:55:00,
2013-02-02 07:00:00,14.5,11.3,30.10,SSW,198,5.0,11.0,87,0.00,,---,0.00,VWS V14.01,2013-02-02 12:00:00,
2013-02-02 07:05:00,14.5,11.3,30.11,South,180,5.0,7.0,87,0.00,,---,0.00,VWS V14.01,2013-02-02 12:05:00,
2013-02-02 07:10:00,14.5,11.6,30.10,South,191,8.0,10.0,88,0.00,,---,0.00,VWS V14.01,2013-02-02 12:10:00,
2013-02-02 07:15:00,14.5,11.6,30.10,SSW,193,5.0,10.0,88,0.00,,---,0.00,VWS V14.01,2013-02-02 12:15:00,
2013-02-02 07:20:00,14.6,11.7,30.10,SE,143,4.0,10.0,88,0.00,,---,0.00,VWS V14.01,2013-02-02 12:20:00,
2013-02-02 07:25:00,14.5,11.6,30.10,SSE,167,5.0,10.0,88,0.00,,---,0.00,VWS V14.01,2013-02-02 12:25:00,
2013-02-02 07:31:00,14.5,11.9,30.10,South,177,3.0,10.0,89,0.00,,---,0.00,VWS V14.01,2013-02-02 12:31:00,
2013-02-02 07:36:00,14.5,11.9,30.10,SSE,153,4.0,10.0,89,0.00,,---,0.00,VWS V14.01,2013-02-02 12:36:00,
2013-02-02 07:41:00,14.4,11.8,30.10,SSW,200,7.0,10.0,89,0.00,,---,0.00,VWS V14.01,2013-02-02 12:41:00,
2013-02-02 07:46:00,14.4,11.8,30.10,SSW,197,7.0,10.0,89,0.00,,---,0.00,VWS V14.01,2013-02-02 12:46:00,
2013-02-02 07:51:00,14.5,11.9,30.09,SSE,162,6.0,10.0,89,0.00,,---,0.00,VWS V14.01,2013-02-02 12:51:00,
2013-02-02 07:56:00,14.5,11.9,30.09,SSW,201,5.0,10.0,89,0.00,,---,0.00,VWS V14.01,2013-02-02 12:56:00,
2013-02-02 08:01:00,14.5,11.9,30.09,SW,215,8.0,10.0,89,0.00,,---,0.00,VWS V14.01,2013-02-02 13:01:00,
2013-02-02 08:06:00,14.6,11.9,30.09,South,179,5.0,10.0,89,0.00,,---,0.00,VWS V14.01,2013-02-02 13:06:00,
2013-02-02 08:11:00,14.6,11.9,30.09,South,188,5.0,10.0,89,0.00,,---,0.00,VWS V14.01,2013-02-02 13:11:00,
2013-02-02 08:16:00,14.7,12.1,30.09,SSW,193,6.0,10.0,89,0.00,,---,0.00,VWS V14.01,2013-02-02 13:16:00,
2013-02-02 08:21:00,14.7,12.1,30.08,SSW,203,5.0,10.0,89,0.00,,---,0.00,VWS V14.01,2013-02-02 13:21:00,
2013-02-02 08:26:00,14.8,12.1,30.08,SSW,193,8.0,10.0,89,0.00,,---,0.00,VWS V14.01,2013-02-02 13:26:00,
2013-02-02 08:32:00,14.9,12.2,30.08,SSW,200,5.0,10.0,89,0.00,,---,0.00,VWS V14.01,2013-02-02 13:32:00,
2013-02-02 08:37:00,15.0,12.4,30.08,SSW,210,7.0,10.0,89,0.00,,---,0.00,VWS V14.01,2013-02-02 13:37:00,
2013-02-02 08:42:00,15.1,12.4,30.08,SSW,205,5.0,10.0,89,0.00,,---,0.00,VWS V14.01,2013-02-02 13:42:00,
2013-02-02 08:47:00,15.2,12.6,30.08,SSW,194,8.0,10.0,89,0.00,,---,0.00,VWS V14.01,2013-02-02 13:47:00,
2013-02-02 08:52:00,15.2,12.3,30.08,SSW,198,4.0,10.0,88,0.00,,---,0.00,VWS V14.01,2013-02-02 13:52:00,
2013-02-02 08:57:00,15.4,12.5,30.08,SSE,156,5.0,10.0,88,0.00,,---,0.00,VWS V14.01,2013-02-02 13:57:00,
2013-02-02 09:02:00,15.5,12.6,30.08,SSW,195,5.0,10.0,88,0.00,,---,0.00,VWS V14.01,2013-02-02 14:02:00,
2013-02-02 09:07:00,15.7,12.8,30.08,SSW,201,2.0,10.0,88,0.00,,---,0.00,VWS V14.01,2013-02-02 14:07:00,
2013-02-02 09:12:00,15.8,12.9,30.07,SW,226,5.0,10.0,88,0.00,,---,0.00,VWS V14.01,2013-02-02 14:12:00,
2013-02-02 09:17:00,15.8,12.6,30.08,SW,215,5.0,10.0,87,0.00,,---,0.00,VWS V14.01,2013-02-02 14:17:00,
2013-02-02 09:22:00,16.0,12.8,30.07,SSW,208,4.0,10.0,87,0.00,,---,0.00,VWS V14.01,2013-02-02 14:22:00,
2013-02-02 09:28:00,16.2,13.0,30.07,South,175,7.0,10.0,87,0.00,,---,0.00,VWS V14.01,2013-02-02 14:28:00,
2013-02-02 09:33:00,16.3,13.1,30.07,SSE,156,6.0,10.0,87,0.00,,---,0.00,VWS V14.01,2013-02-02 14:33:00,
2013-02-02 09:38:00,16.4,13.2,30.07,SW,226,6.0,10.0,87,0.00,,---,0.00,VWS V14.01,2013-02-02 14:38:00,
2013-02-02 09:43:00,16.4,13.2,30.06,SSW,207,8.0,10.0,87,0.00,,---,0.00,VWS V14.01,2013-02-02 14:43:00,
2013-02-02 09:48:00,16.5,13.3,30.06,WSW,238,3.0,10.0,87,0.00,,---,0.00,VWS V14.01,2013-02-02 14:48:00,
2013-02-02 09:53:00,16.7,13.2,30.06,SSW,207,5.0,10.0,86,0.00,,---,0.00,VWS V14.01,2013-02-02 14:53:00,
2013-02-02 09:58:00,16.9,13.4,30.06,SW,217,6.0,10.0,86,0.00,,---,0.00,VWS V14.01,2013-02-02 14:58:00,
2013-02-02 10:03:00,17.1,13.6,30.05,SW,217,8.0,11.0,86,0.00,,---,0.00,VWS V14.01,2013-02-02 15:03:00,
2013-02-02 10:09:00,17.1,13.6,30.05,SSW,203,6.0,11.0,86,0.00,,---,0.00,VWS V14.01,2013-02-02 15:09:00,
2013-02-02 10:14:00,17.3,13.8,30.05,SSW,205,7.0,11.0,86,0.00,,---,0.00,VWS V14.01,2013-02-02 15:14:00,
2013-02-02 10:19:00,17.4,13.9,30.05,SW,222,9.0,13.0,86,0.00,,---,0.00,VWS V14.01,2013-02-02 15:19:00,
2013-02-02 10:24:00,17.5,14.0,30.05,SW,225,6.0,13.0,86,0.00,,---,0.00,VWS V14.01,2013-02-02 15:24:00,
2013-02-02 10:29:00,17.6,14.1,30.05,WSW,245,7.0,13.0,86,0.00,,---,0.00,VWS V14.01,2013-02-02 15:29:00,
2013-02-02 10:34:00,17.7,14.2,30.05,SW,214,5.0,13.0,86,0.00,,---,0.00,VWS V14.01,2013-02-02 15:34:00,
2013-02-02 10:39:00,17.7,14.2,30.05,South,190,5.0,13.0,86,0.00,,---,0.00,VWS V14.01,2013-02-02 15:39:00,
2013-02-02 10:44:00,17.9,14.4,30.04,SSW,210,4.0,13.0,86,0.00,,---,0.00,VWS V14.01,2013-02-02 15:44:00,
2013-02-02 10:50:00,17.9,14.4,30.04,SSW,205,5.0,13.0,86,0.00,,---,0.00,VWS V14.01,2013-02-02 15:50:00,
2013-02-02 10:55:00,18.1,14.4,30.04,SW,222,5.0,13.0,85,0.00,,---,0.00,VWS V14.01,2013-02-02 15:55:00,
2013-02-02 11:00:00,18.1,14.4,30.04,SSW,210,5.0,13.0,85,0.00,,---,0.00,VWS V14.01,2013-02-02 16:00:00,
2013-02-02 11:05:00,18.3,14.6,30.04,SW,217,8.0,9.0,85,0.00,,---,0.00,VWS V14.01,2013-02-02 16:05:00,
2013-02-02 11:10:00,18.4,14.6,30.04,SW,214,5.0,9.0,85,0.00,,---,0.00,VWS V14.01,2013-02-02 16:10:00,
2013-02-02 11:15:00,18.7,14.9,30.04,SSW,203,5.0,9.0,85,0.00,,---,0.00,VWS V14.01,2013-02-02 16:15:00,
2013-02-02 11:20:00,18.8,14.8,30.04,SW,224,6.0,9.0,84,0.00,,---,0.00,VWS V14.01,2013-02-02 16:20:00,
2013-02-02 11:26:00,19.1,15.1,30.04,SSW,212,7.0,9.0,84,0.00,,---,0.00,VWS V14.01,2013-02-02 16:26:00,
2013-02-02 11:31:00,19.3,15.3,30.04,SSW,212,7.0,10.0,84,0.00,,---,0.00,VWS V14.01,2013-02-02 16:31:00,
2013-02-02 11:36:00,19.5,15.5,30.03,SW,214,4.0,10.0,84,0.00,,---,0.00,VWS V14.01,2013-02-02 16:36:00,
2013-02-02 11:41:00,19.7,15.7,30.03,SW,217,4.0,10.0,84,0.00,,---,0.00,VWS V14.01,2013-02-02 16:41:00,
2013-02-02 11:46:00,19.8,15.8,30.03,West,266,4.0,10.0,84,0.00,,---,0.00,VWS V14.01,2013-02-02 16:46:00,
2013-02-02 11:51:00,19.9,15.9,30.03,SW,223,6.0,10.0,84,0.00,,---,0.00,VWS V14.01,2013-02-02 16:51:00,
2013-02-02 11:56:00,20.1,16.0,30.02,SSW,207,4.0,10.0,84,0.00,,---,0.00,VWS V14.01,2013-02-02 16:56:00,
2013-02-02 12:01:00,20.4,16.6,30.02,SSW,204,4.0,5.0,85,0.00,,---,0.00,VWS V14.01,2013-02-02 17:01:00,
2013-02-02 12:06:00,20.5,16.4,30.02,SW,231,5.0,5.0,84,0.00,,---,0.00,VWS V14.01,2013-02-02 17:06:00,
2013-02-02 12:12:00,20.5,16.4,30.02,WSW,256,5.0,5.0,84,0.00,,---,0.00,VWS V14.01,2013-02-02 17:12:00,
2013-02-02 12:17:00,20.6,16.5,30.02,WSW,243,5.0,7.0,84,0.00,,---,0.00,VWS V14.01,2013-02-02 17:17:00,
2013-02-02 12:22:00,20.8,16.7,30.01,WSW,256,2.0,7.0,84,0.00,,---,0.00,VWS V14.01,2013-02-02 17:22:00,
2013-02-02 12:27:00,20.8,16.5,30.01,West,259,4.0,7.0,83,0.00,,---,0.00,VWS V14.01,2013-02-02 17:27:00,
2013-02-02 12:32:00,21.0,16.7,30.01,West,271,5.0,8.0,83,0.00,,---,0.00,VWS V14.01,2013-02-02 17:32:00,
2013-02-02 12:37:00,21.0,16.7,30.01,WSW,243,6.0,8.0,83,0.00,,---,0.00,VWS V14.01,2013-02-02 17:37:00,
2013-02-02 12:42:00,21.1,16.8,30.01,West,262,4.0,8.0,83,0.00,,---,0.00,VWS V14.01,2013-02-02 17:42:00,
2013-02-02 12:47:00,21.1,16.8,30.01,WSW,257,5.0,8.0,83,0.00,,---,0.00,VWS V14.01,2013-02-02 17:47:00,
2013-02-02 12:52:00,21.0,16.7,30.01,West,262,3.0,8.0,83,0.00,,---,0.00,VWS V14.01,2013-02-02 17:52:00,
2013-02-02 12:57:00,21.1,16.8,30.00,WSW,242,4.0,8.0,83,0.00,,---,0.00,VWS V14.01,2013-02-02 17:57:00,
2013-02-02 13:03:00,21.0,16.7,30.00,WSW,245,3.0,5.0,83,0.00,,---,0.00,VWS V14.01,2013-02-02 18:03:00,
2013-02-02 13:08:00,21.1,16.8,30.00,West,274,5.0,7.0,83,0.00,,---,0.00,VWS V14.01,2013-02-02 18:08:00,
2013-02-02 13:13:00,21.0,16.9,30.00,West,266,4.0,7.0,84,0.00,,---,0.00,VWS V14.01,2013-02-02 18:13:00,
2013-02-02 13:18:00,21.1,17.0,30.00,West,263,5.0,7.0,84,0.00,,---,0.00,VWS V14.01,2013-02-02 18:18:00,
2013-02-02 13:23:00,21.1,17.0,29.99,West,266,3.0,7.0,84,0.00,,---,0.00,VWS V14.01,2013-02-02 18:23:00,
2013-02-02 13:28:00,21.2,17.1,29.99,West,262,3.0,7.0,84,0.00,,---,0.00,VWS V14.01,2013-02-02 18:28:00,
2013-02-02 13:33:00,21.3,17.2,29.99,NW,319,1.0,7.0,84,0.00,,---,0.00,VWS V14.01,2013-02-02 18:33:00,
2013-02-02 13:38:00,21.5,17.4,29.99,WNW,298,3.0,7.0,84,0.00,,---,0.00,VWS V14.01,2013-02-02 18:38:00,
2013-02-02 13:43:00,21.5,17.4,29.99,WNW,296,2.0,7.0,84,0.00,,---,0.00,VWS V14.01,2013-02-02 18:43:00,
2013-02-02 13:48:00,21.5,17.7,29.99,West,259,3.0,7.0,85,0.00,,---,0.00,VWS V14.01,2013-02-02 18:48:00,
2013-02-02 13:53:00,21.4,17.6,29.99,WNW,290,5.0,7.0,85,0.00,,---,0.00,VWS V14.01,2013-02-02 18:53:00,
2013-02-02 13:59:00,21.3,17.8,29.99,NW,315,4.0,7.0,86,0.00,,---,0.00,VWS V14.01,2013-02-02 18:59:00,
2013-02-02 14:04:00,21.2,17.7,29.99,WNW,283,2.0,4.0,86,0.00,,---,0.00,VWS V14.01,2013-02-02 19:04:00,
2013-02-02 14:09:00,21.1,17.3,29.99,NW,308,2.0,7.0,85,0.00,,---,0.00,VWS V14.01,2013-02-02 19:09:00,
2013-02-02 14:14:00,21.1,17.6,29.99,NNW,334,1.0,7.0,86,0.00,,---,0.00,VWS V14.01,2013-02-02 19:14:00,
2013-02-02 14:19:00,21.0,17.5,29.99,NW,310,5.0,7.0,86,0.00,,---,0.00,VWS V14.01,2013-02-02 19:19:00,
2013-02-02 14:24:00,20.8,17.3,29.99,NNW,342,3.0,7.0,86,0.00,,---,0.00,VWS V14.01,2013-02-02 19:24:00,
2013-02-02 14:29:00,20.5,17.0,29.99,NNE,13,5.0,9.0,86,0.00,,---,0.00,VWS V14.01,2013-02-02 19:29:00,
2013-02-02 14:34:00,20.6,17.1,29.99,NW,323,3.0,9.0,86,0.00,,---,0.00,VWS V14.01,2013-02-02 19:34:00,
2013-02-02 14:39:00,20.5,17.0,29.99,North,4,6.0,9.0,86,0.00,,---,0.00,VWS V14.01,2013-02-02 19:39:00,
2013-02-02 14:44:00,20.1,16.9,29.99,NNE,19,9.0,10.0,87,0.00,,---,0.00,VWS V14.01,2013-02-02 19:44:00,
2013-02-02 14:49:00,19.9,16.7,30.00,NNW,336,6.0,10.0,87,0.00,,---,0.00,VWS V14.01,2013-02-02 19:49:00,
2013-02-02 14:55:00,19.6,16.4,30.00,NW,314,7.0,10.0,87,0.00,,---,0.00,VWS V14.01,2013-02-02 19:55:00,
2013-02-02 15:00:00,19.5,16.0,30.00,NE,37,4.0,10.0,86,0.00,,---,0.00,VWS V14.01,2013-02-02 20:00:00,
2013-02-02 15:05:00,19.4,15.9,30.00,North,6,6.0,8.0,86,0.00,,---,0.00,VWS V14.01,2013-02-02 20:05:00,
2013-02-02 15:10:00,19.4,16.2,30.00,NW,314,6.0,9.0,87,0.00,,---,0.00,VWS V14.01,2013-02-02 20:10:00,
2013-02-02 15:15:00,19.3,16.1,30.00,NNW,338,6.0,9.0,87,0.00,,---,0.00,VWS V14.01,2013-02-02 20:15:00,
2013-02-02 15:20:00,19.0,15.5,30.00,North,352,3.0,11.0,86,0.00,,---,0.00,VWS V14.01,2013-02-02 20:20:00,
2013-02-02 15:25:00,18.9,15.7,30.01,North,9,6.0,11.0,87,0.00,,---,0.00,VWS V14.01,2013-02-02 20:25:00,
2013-02-02 15:30:00,18.6,14.9,30.01,NNW,342,5.0,12.0,85,0.00,,---,0.00,VWS V14.01,2013-02-02 20:30:00,
2013-02-02 15:35:00,18.5,14.8,30.01,NNW,338,4.0,12.0,85,0.00,,---,0.00,VWS V14.01,2013-02-02 20:35:00,
2013-02-02 15:41:00,18.3,14.6,30.01,North,5,8.0,12.0,85,0.00,,---,0.00,VWS V14.01,2013-02-02 20:41:00,
2013-02-02 15:46:00,18.0,14.0,30.01,NNE,19,6.0,12.0,84,0.00,,---,0.00,VWS V14.01,2013-02-02 20:46:00,
2013-02-02 15:51:00,17.8,13.5,30.01,NW,323,4.0,12.0,83,0.00,,---,0.00,VWS V14.01,2013-02-02 20:51:00,
2013-02-02 15:56:00,17.9,13.9,30.01,NNW,336,3.0,12.0,84,0.00,,---,0.00,VWS V14.01,2013-02-02 20:56:00,
2013-02-02 16:01:00,17.9,13.9,30.02,NNW,344,4.0,12.0,84,0.00,,---,0.00,VWS V14.01,2013-02-02 21:01:00,
2013-02-02 16:06:00,17.9,13.6,30.01,NW,314,1.0,5.0,83,0.00,,---,0.00,VWS V14.01,2013-02-02 21:06:00,
2013-02-02 16:11:00,17.8,13.5,30.01,WNW,295,1.0,7.0,83,0.00,,---,0.00,VWS V14.01,2013-02-02 21:11:00,
2013-02-02 16:16:00,17.8,13.5,30.02,North,353,2.0,8.0,83,0.00,,---,0.00,VWS V14.01,2013-02-02 21:16:00,
2013-02-02 16:21:00,17.7,13.4,30.02,NE,41,4.0,8.0,83,0.00,,---,0.00,VWS V14.01,2013-02-02 21:21:00,
2013-02-02 16:26:00,17.7,13.4,30.02,NNW,329,1.0,8.0,83,0.00,,---,0.00,VWS V14.01,2013-02-02 21:26:00,
2013-02-02 16:31:00,17.6,12.8,30.02,NNW,342,3.0,8.0,81,0.00,,---,0.00,VWS V14.01,2013-02-02 21:31:00,
2013-02-02 16:37:00,17.6,12.8,30.02,NW,321,2.0,8.0,81,0.00,,---,0.00,VWS V14.01,2013-02-02 21:37:00,
2013-02-02 16:42:00,17.5,12.7,30.02,NNW,335,5.0,8.0,81,0.00,,---,0.00,VWS V14.01,2013-02-02 21:42:00,
2013-02-02 16:47:00,17.5,12.4,30.02,NW,314,1.0,8.0,80,0.00,,---,0.00,VWS V14.01,2013-02-02 21:47:00,
2013-02-02 16:52:00,17.5,12.4,30.02,NNW,348,2.0,8.0,80,0.00,,---,0.00,VWS V14.01,2013-02-02 21:52:00,
2013-02-02 16:57:00,17.6,12.2,30.02,NNW,340,2.0,8.0,79,0.00,,---,0.00,VWS V14.01,2013-02-02 21:57:00,
2013-02-02 17:02:00,17.6,11.9,30.02,North,1,5.0,5.0,78,0.00,,---,0.00,VWS V14.01,2013-02-02 22:02:00,
2013-02-02 17:07:00,17.6,11.6,30.02,NNW,344,4.0,6.0,77,0.00,,---,0.00,VWS V14.01,2013-02-02 22:07:00,
2013-02-02 17:12:00,17.6,11.6,30.03,NNW,348,3.0,7.0,77,0.00,,---,0.00,VWS V14.01,2013-02-02 22:12:00,
2013-02-02 17:17:00,17.5,11.5,30.03,NNW,346,9.0,9.0,77,0.00,,---,0.00,VWS V14.01,2013-02-02 22:17:00,
2013-02-02 17:22:00,17.4,12.0,30.03,North,352,2.0,9.0,79,0.00,,---,0.00,VWS V14.01,2013-02-02 22:22:00,
2013-02-02 17:27:00,17.3,11.9,30.03,NW,322,8.0,9.0,79,0.00,,---,0.00,VWS V14.01,2013-02-02 22:27:00,
2013-02-02 17:33:00,17.1,12.0,30.03,NNW,334,6.0,9.0,80,0.00,,---,0.00,VWS V14.01,2013-02-02 22:33:00,
2013-02-02 17:38:00,17.0,12.2,30.04,North,350,5.0,9.0,81,0.00,,---,0.00,VWS V14.01,2013-02-02 22:38:00,
2013-02-02 17:43:00,16.9,12.1,30.04,NNE,19,7.0,9.0,81,0.00,,---,0.00,VWS V14.01,2013-02-02 22:43:00,
2013-02-02 17:48:00,16.8,12.3,30.04,NNE,13,3.0,9.0,82,0.00,,---,0.00,VWS V14.01,2013-02-02 22:48:00,
2013-02-02 17:53:00,16.8,12.3,30.04,NNW,342,5.0,9.0,82,0.00,,---,0.00,VWS V14.01,2013-02-02 22:53:00,
2013-02-02 17:58:00,16.7,12.4,30.04,NW,319,4.0,9.0,83,0.00,,---,0.00,VWS V14.01,2013-02-02 22:58:00,
2013-02-02 18:03:00,16.6,12.4,30.04,NW,310,4.0,6.0,83,0.00,,---,0.00,VWS V14.01,2013-02-02 23:03:00,
2013-02-02 18:08:00,16.4,12.1,30.05,NNW,333,2.0,9.0,83,0.00,,---,0.00,VWS V14.01,2013-02-02 23:08:00,
2013-02-02 18:13:00,16.3,12.3,30.05,North,356,3.0,9.0,84,0.00,,---,0.00,VWS V14.01,2013-02-02 23:13:00,
2013-02-02 18:18:00,16.1,12.1,30.05,NNW,333,2.0,9.0,84,0.00,,---,0.00,VWS V14.01,2013-02-02 23:18:00,
2013-02-02 18:24:00,16.0,12.3,30.05,NNW,344,3.0,9.0,85,0.00,,---,0.00,VWS V14.01,2013-02-02 23:24:00,
2013-02-02 18:29:00,15.8,12.1,30.05,NNW,346,5.0,11.0,85,0.00,,---,0.00,VWS V14.01,2013-02-02 23:29:00,
2013-02-02 18:34:00,15.5,11.8,30.06,NE,39,3.0,11.0,85,0.00,,---,0.00,VWS V14.01,2013-02-02 23:34:00,
2013-02-02 18:39:00,15.2,11.5,30.06,NNE,20,5.0,11.0,85,0.00,,---,0.00,VWS V14.01,2013-02-02 23:39:00,
2013-02-02 18:44:00,15.0,11.3,30.06,NE,34,4.0,11.0,85,0.00,,---,0.00,VWS V14.01,2013-02-02 23:44:00,
2013-02-02 18:49:00,14.8,11.1,30.06,NNE,21,11.0,11.0,85,0.00,,---,0.00,VWS V14.01,2013-02-02 23:49:00,
2013-02-02 18:54:00,14.6,10.7,30.06,NNW,333,4.0,11.0,84,0.00,,---,0.00,VWS V14.01,2013-02-02 23:54:00,
2013-02-02 18:59:00,14.5,10.8,30.07,North,359,4.0,11.0,85,0.00,,---,0.00,VWS V14.01,2013-02-02 23:59:00,
2013-02-02 19:04:00,14.3,10.6,30.07,NW,326,3.0,9.0,85,0.00,,---,0.00,VWS V14.01,2013-02-03 00:04:00,
2013-02-02 19:10:00,14.2,10.5,30.07,NNW,340,5.0,9.0,85,0.00,,---,0.00,VWS V14.01,2013-02-03 00:10:00,
2013-02-02 19:15:00,14.1,10.4,30.07,NNE,30,2.0,9.0,85,0.00,,---,0.00,VWS V14.01,2013-02-03 00:15:00,
2013-02-02 19:20:00,13.9,10.5,30.07,NNW,346,4.0,9.0,86,0.00,,---,0.00,VWS V14.01,2013-02-03 00:20:00,
2013-02-02 19:25:00,13.8,10.4,30.07,NNE,13,2.0,9.0,86,0.00,,---,0.00,VWS V14.01,2013-02-03 00:25:00,
2013-02-02 19:30:00,13.8,10.4,30.07,NNE,22,5.0,9.0,86,0.00,,---,0.00,VWS V14.01,2013-02-03 00:30:00,
2013-02-02 19:35:00,13.7,10.3,30.07,North,349,4.0,9.0,86,0.00,,---,0.00,VWS V14.01,2013-02-03 00:35:00,
2013-02-02 19:40:00,13.7,10.3,30.07,NNE,27,6.0,9.0,86,0.00,,---,0.00,VWS V14.01,2013-02-03 00:40:00,
2013-02-02 19:45:00,13.6,10.2,30.07,NNE,29,4.0,9.0,86,0.00,,---,0.00,VWS V14.01,2013-02-03 00:45:00,
2013-02-02 19:50:00,13.6,10.2,30.08,NNE,25,5.0,9.0,86,0.00,,---,0.00,VWS V14.01,2013-02-03 00:50:00,
2013-02-02 19:55:00,13.4,9.7,30.07,NE,34,6.0,10.0,85,0.00,,---,0.00,VWS V14.01,2013-02-03 00:55:00,
2013-02-02 20:01:00,13.4,9.5,30.07,NE,43,8.0,10.0,84,0.00,,---,0.00,VWS V14.01,2013-02-03 01:01:00,
2013-02-02 20:06:00,13.3,8.8,30.08,NNE,30,3.0,8.0,82,0.00,,---,0.00,VWS V14.01,2013-02-03 01:06:00,
2013-02-02 20:11:00,13.2,8.8,30.08,North,356,7.0,8.0,82,0.00,,---,0.00,VWS V14.01,2013-02-03 01:11:00,
2013-02-02 20:16:00,13.2,8.5,30.08,North,8,3.0,8.0,81,0.00,,---,0.00,VWS V14.01,2013-02-03 01:16:00,
2013-02-02 20:21:00,13.1,8.1,30.08,NNE,20,2.0,8.0,80,0.00,,---,0.00,VWS V14.01,2013-02-03 01:21:00,
2013-02-02 20:26:00,13.0,8.3,30.08,North,9,3.0,8.0,81,0.00,,---,0.00,VWS V14.01,2013-02-03 01:26:00,
2013-02-02 20:31:00,12.9,8.2,30.08,NNE,30,4.0,8.0,81,0.00,,---,0.00,VWS V14.01,2013-02-03 01:31:00,
2013-02-02 20:36:00,12.9,7.9,30.08,North,8,2.0,8.0,80,0.00,,---,0.00,VWS V14.01,2013-02-03 01:36:00,
2013-02-02 20:41:00,12.8,7.8,30.08,NNE,22,2.0,8.0,80,0.00,,---,0.00,VWS V14.01,2013-02-03 01:41:00,
2013-02-02 20:46:00,12.6,7.6,30.08,NNE,22,1.0,8.0,80,0.00,,---,0.00,VWS V14.01,2013-02-03 01:46:00,
2013-02-02 20:51:00,12.4,7.4,30.08,North,3,2.0,8.0,80,0.00,,---,0.00,VWS V14.01,2013-02-03 01:51:00,
2013-02-02 20:56:00,12.2,7.2,30.07,North,359,1.0,8.0,80,0.00,,---,0.00,VWS V14.01,2013-02-03 01:56:00,
2013-02-02 21:02:00,12.0,7.0,30.07,NE,37,1.0,2.0,80,0.00,,---,0.00,VWS V14.01,2013-02-03 02:02:00,
2013-02-02 21:07:00,11.9,6.9,30.07,North,356,1.0,3.0,80,0.00,,---,0.00,VWS V14.01,2013-02-03 02:07:00,
2013-02-02 21:12:00,11.6,6.6,30.07,North,11,0.0,3.0,80,0.00,,---,0.00,VWS V14.01,2013-02-03 02:12:00,
2013-02-02 21:17:00,11.4,6.4,30.07,NNW,342,0.0,3.0,80,0.00,,---,0.00,VWS V14.01,2013-02-03 02:17:00,
2013-02-02 21:22:00,11.0,6.1,30.07,NNW,342,1.0,3.0,80,0.00,,---,0.00,VWS V14.01,2013-02-03 02:22:00,
2013-02-02 21:27:00,10.6,5.7,30.07,NNW,342,0.0,3.0,80,0.00,,---,0.00,VWS V14.01,2013-02-03 02:27:00,
2013-02-02 21:32:00,10.2,5.5,30.07,NNW,342,0.0,3.0,81,0.00,,---,0.00,VWS V14.01,2013-02-03 02:32:00,
2013-02-02 21:37:00,9.7,5.1,30.07,NNW,342,0.0,3.0,81,0.00,,---,0.00,VWS V14.01,2013-02-03 02:37:00,
2013-02-02 21:42:00,9.2,4.8,30.07,NNW,342,0.0,3.0,82,0.00,,---,0.00,VWS V14.01,2013-02-03 02:42:00,
2013-02-02 21:47:00,8.6,4.2,30.07,NNW,342,0.0,3.0,82,0.00,,---,0.00,VWS V14.01,2013-02-03 02:47:00,
2013-02-02 21:52:00,8.0,3.7,30.07,NNW,342,0.0,3.0,82,0.00,,---,0.00,VWS V14.01,2013-02-03 02:52:00,
2013-02-02 21:57:00,7.5,3.4,30.07,NNW,342,0.0,3.0,83,0.00,,---,0.00,VWS V14.01,2013-02-03 02:57:00,
2013-02-02 22:03:00,6.9,3.1,30.07,NNW,342,0.0,0.0,84,0.00,,---,0.00,VWS V14.01,2013-02-03 03:03:00,
2013-02-02 22:08:00,6.6,3.1,30.08,NNW,343,0.0,0.0,85,0.00,,---,0.00,VWS V14.01,2013-02-03 03:08:00,
2013-02-02 22:13:00,6.7,3.4,30.08,NNW,342,0.0,0.0,86,0.00,,---,0.00,VWS V14.01,2013-02-03 03:13:00,
2013-02-02 22:18:00,6.8,3.8,30.08,NNW,342,0.0,0.0,87,0.00,,---,0.00,VWS V14.01,2013-02-03 03:18:00,
2013-02-02 22:23:00,6.5,3.5,30.08,NNW,342,0.0,0.0,87,0.00,,---,0.00,VWS V14.01,2013-02-03 03:23:00,
2013-02-02 22:28:00,6.1,3.1,30.08,NNW,342,0.0,0.0,87,0.00,,---,0.00,VWS V14.01,2013-02-03 03:28:00,
2013-02-02 22:33:00,5.6,2.6,30.08,NNW,342,0.0,0.0,87,0.00,,---,0.00,VWS V14.01,2013-02-03 03:33:00,
2013-02-02 22:38:00,5.1,2.1,30.08,NNW,342,0.0,0.0,87,0.00,,---,0.00,VWS V14.01,2013-02-03 03:38:00,
2013-02-02 22:43:00,4.4,1.4,30.08,NNW,343,0.0,0.0,87,0.00,,---,0.00,VWS V14.01,2013-02-03 03:43:00,
2013-02-02 22:48:00,3.7,0.7,30.07,NNW,342,0.0,0.0,87,0.00,,---,0.00,VWS V14.01,2013-02-03 03:48:00,
2013-02-02 22:53:00,3.2,0.2,30.07,NNW,342,0.0,0.0,87,0.00,,---,0.00,VWS V14.01,2013-02-03 03:53:00,
2013-02-02 22:58:00,3.5,1.0,30.07,NNW,343,0.0,0.0,89,0.00,,---,0.00,VWS V14.01,2013-02-03 03:58:00,
2013-02-02 23:03:00,3.7,1.2,30.07,NNW,342,0.0,0.0,89,0.00,,---,0.00,VWS V14.01,2013-02-03 04:03:00,
2013-02-02 23:09:00,3.8,1.3,30.07,NNW,343,0.0,0.0,89,0.00,,---,0.00,VWS V14.01,2013-02-03 04:09:00,
2013-02-02 23:14:00,3.9,1.4,30.07,NNW,342,0.0,0.0,89,0.00,,---,0.00,VWS V14.01,2013-02-03 04:14:00,
2013-02-02 23:19:00,4.1,1.8,30.07,NNW,342,0.0,0.0,90,0.00,,---,0.00,VWS V14.01,2013-02-03 04:19:00,
2013-02-02 23:24:00,4.3,2.0,30.06,NNW,342,0.0,0.0,90,0.00,,---,0.00,VWS V14.01,2013-02-03 04:24:00,
2013-02-02 23:29:00,4.3,2.0,30.06,NNW,342,0.0,0.0,90,0.00,,---,0.00,VWS V14.01,2013-02-03 04:29:00,
2013-02-02 23:34:00,4.2,1.9,30.06,NNW,342,0.0,0.0,90,0.00,,---,0.00,VWS V14.01,2013-02-03 04:34:00,
2013-02-02 23:39:00,4.2,1.9,30.06,NNW,342,0.0,0.0,90,0.00,,---,0.00,VWS V14.01,2013-02-03 04:39:00,
2013-02-02 23:44:00,4.1,1.6,30.06,NNW,342,0.0,0.0,89,0.00,,---,0.00,VWS V14.01,2013-02-03 04:44:00,
2013-02-02 23:49:00,3.7,1.2,30.06,NNW,342,0.0,0.0,89,0.00,,---,0.00,VWS V14.01,2013-02-03 04:49:00,
2013-02-02 23:55:00,3.5,1.0,30.06,NNW,343,0.0,0.0,89,0.00,,---,0.00,VWS V14.01,2013-02-03 04:55:00,